createdAt,value
2019-05-14T00:02:28.694Z,5.92
2019-05-14T00:04:58.279Z,6.50
2019-05-14T00:07:34.672Z,5.50
2019-05-14T00:10:13.530Z,6.17
2019-05-14T00:12:43.115Z,5.87
2019-05-14T00:15:21.628Z,6.50
2019-05-14T00:17:58.411Z,6.50
2019-05-14T00:20:42.105Z,6.33
2019-05-14T00:25:47.130Z,6.67
2019-05-14T00:28:23.586Z,6.50
2019-05-14T00:31:02.640Z,7.00
2019-05-14T00:33:31.710Z,6.83
2019-05-14T00:36:07.615Z,7.40
2019-05-14T00:38:37.066Z,7.50
2019-05-14T00:41:13.511Z,7.10
2019-05-14T00:43:43.085Z,8.00
2019-05-14T00:46:21.213Z,7.67
2019-05-14T00:48:51.505Z,8.38
2019-05-14T00:51:27.576Z,8.08
2019-05-14T00:53:57.295Z,8.10
2019-05-14T00:56:33.463Z,8.70
2019-05-14T00:59:11.192Z,9.48
2019-05-14T01:01:46.829Z,9.68
2019-05-14T01:04:16.418Z,9.48
2019-05-14T01:06:52.290Z,7.60
2019-05-14T01:09:21.907Z,7.45
2019-05-14T01:12:05.264Z,7.85
2019-05-14T01:17:28.652Z,7.92
2019-05-14T01:19:58.804Z,7.97
2019-05-14T01:22:35.201Z,8.75
2019-05-14T01:25:04.952Z,8.93
2019-05-14T01:27:41.520Z,8.53
2019-05-14T01:30:12.453Z,8.93
2019-05-14T01:32:51.241Z,8.20
2019-05-14T01:35:22.172Z,8.75
2019-05-14T01:37:52.318Z,8.10
2019-05-14T01:40:28.331Z,8.48
2019-05-14T01:43:05.067Z,8.55
2019-05-14T01:45:34.648Z,8.05
2019-05-14T01:48:11.753Z,8.40
2019-05-14T01:50:54.279Z,8.03
2019-05-14T01:53:31.196Z,7.17
2019-05-14T01:56:07.794Z,7.45
2019-05-14T01:58:37.376Z,7.83
2019-05-14T02:01:21.908Z,7.47
2019-05-14T02:03:51.906Z,7.15
2019-05-14T02:06:28.352Z,6.95
2019-05-14T02:09:04.471Z,7.08
2019-05-14T02:11:41.576Z,6.67
2019-05-14T02:14:24.384Z,7.10
2019-05-14T02:16:54.043Z,6.97
2019-05-14T02:19:31.704Z,7.67
2019-05-14T02:22:02.051Z,6.60
2019-05-14T02:24:38.504Z,6.55
2019-05-14T02:27:08.109Z,6.00
2019-05-14T02:29:43.661Z,5.75
2019-05-14T02:32:13.236Z,4.53
2019-05-14T02:34:50.369Z,4.05
2019-05-14T02:37:20.037Z,3.98
2019-05-14T02:39:50.368Z,4.00
2019-05-14T02:42:28.994Z,3.33
2019-05-14T02:44:59.336Z,3.20
2019-05-14T02:47:39.516Z,3.02
2019-05-14T02:50:14.497Z,2.75
2019-05-14T02:52:50.588Z,2.98
2019-05-14T02:55:29.611Z,3.12
2019-05-14T02:57:59.867Z,3.10
2019-05-14T03:00:40.433Z,3.30
2019-05-14T03:03:20.764Z,3.35
2019-05-14T03:05:50.423Z,3.25
2019-05-14T03:08:30.396Z,3.00
2019-05-14T03:11:00.332Z,3.65
2019-05-14T03:13:43.261Z,3.15
2019-05-14T03:16:26.580Z,3.20
2019-05-14T03:18:51.464Z,2.65
2019-05-14T03:21:30.160Z,2.87
2019-05-14T03:24:00.788Z,2.83
2019-05-14T03:26:39.471Z,2.62
2019-05-14T03:29:09.957Z,3.37
2019-05-14T03:31:45.343Z,3.40
2019-05-14T03:34:22.805Z,3.72
2019-05-14T03:37:03.177Z,3.47
2019-05-14T03:39:30.786Z,2.95
2019-05-14T03:42:09.572Z,2.95
2019-05-14T03:44:39.872Z,2.55
2019-05-14T03:47:19.334Z,2.60
2019-05-14T03:49:54.310Z,2.70
2019-05-14T03:52:30.190Z,3.40
2019-05-14T03:55:09.123Z,2.50
2019-05-14T03:57:39.921Z,2.55
2019-05-14T04:00:18.823Z,2.90
2019-05-14T04:02:55.116Z,2.58
2019-05-14T04:05:31.790Z,2.60
2019-05-14T04:08:01.535Z,2.15
2019-05-14T04:10:49.155Z,2.27
2019-05-14T04:13:14.614Z,2.47
2019-05-14T04:15:55.335Z,2.35
2019-05-14T04:18:28.971Z,2.50
2019-05-14T04:21:09.510Z,2.60
2019-05-14T04:23:39.608Z,2.10
2019-05-14T04:26:20.024Z,2.62
2019-05-14T04:29:14.726Z,2.42
2019-05-14T04:31:53.421Z,2.35
2019-05-14T04:34:30.318Z,2.45
2019-05-14T04:37:00.328Z,2.45
2019-05-14T04:39:39.201Z,2.60
2019-05-14T04:42:09.602Z,2.47
2019-05-14T04:44:45.544Z,2.25
2019-05-14T04:47:30.413Z,2.67
2019-05-14T04:49:59.561Z,2.55
2019-05-14T04:52:36.155Z,1.98
2019-05-14T04:55:12.678Z,2.50
2019-05-14T04:57:50.280Z,2.15
2019-05-14T05:00:20.106Z,2.40
2019-05-14T05:02:55.816Z,1.87
2019-05-14T05:05:32.200Z,2.33
2019-05-14T05:08:09.153Z,2.40
2019-05-14T05:10:39.869Z,2.00
2019-05-14T05:13:22.445Z,2.08
2019-05-14T05:15:52.035Z,1.98
2019-05-14T05:18:29.570Z,1.70
2019-05-14T05:20:59.400Z,2.70
2019-05-14T05:23:35.444Z,2.27
2019-05-14T05:26:05.013Z,1.98
2019-05-14T05:28:41.553Z,2.30
2019-05-14T05:31:11.135Z,1.42
2019-05-14T05:33:40.650Z,1.67
2019-05-14T05:36:18.474Z,2.05
2019-05-14T05:38:54.741Z,2.17
2019-05-14T05:41:24.252Z,1.55
2019-05-14T05:44:00.814Z,2.30
2019-05-14T05:46:30.328Z,2.20
2019-05-14T05:48:59.977Z,2.17
2019-05-14T05:51:36.332Z,1.72
2019-05-14T05:54:12.428Z,2.10
2019-05-14T05:56:41.943Z,2.10
2019-05-14T05:59:19.058Z,1.90
2019-05-14T06:01:55.460Z,2.12
2019-05-14T06:04:31.924Z,1.60
2019-05-14T06:07:14.648Z,2.77
2019-05-14T06:09:44.174Z,1.92
2019-05-14T06:12:20.547Z,1.60
2019-05-14T06:15:02.817Z,1.80
2019-05-14T06:17:32.292Z,2.25
2019-05-14T06:20:08.744Z,2.10
2019-05-14T06:22:38.620Z,2.05
2019-05-14T06:25:15.267Z,1.80
2019-05-14T06:27:44.774Z,2.00
2019-05-14T06:30:22.885Z,1.70
2019-05-14T06:32:52.477Z,1.80
2019-05-14T06:35:28.664Z,1.75
2019-05-14T06:38:05.232Z,1.65
2019-05-14T06:40:41.125Z,1.80
2019-05-14T06:43:10.722Z,1.70
2019-05-14T06:45:40.371Z,1.50
2019-05-14T06:48:28.118Z,1.98
2019-05-14T06:50:50.386Z,2.02
2019-05-14T06:53:28.768Z,1.75
2019-05-14T06:55:58.814Z,1.60
2019-05-14T06:58:34.767Z,1.40
2019-05-14T07:01:04.363Z,2.22
2019-05-14T07:03:33.974Z,1.60
2019-05-14T07:06:18.575Z,1.80
2019-05-14T07:08:52.147Z,1.30
2019-05-14T07:11:19.727Z,1.45
2019-05-14T07:14:02.072Z,2.00
2019-05-14T07:16:39.069Z,1.70
2019-05-14T07:19:16.794Z,1.90
2019-05-14T07:21:49.234Z,1.55
2019-05-14T07:24:19.420Z,1.55
2019-05-14T07:26:58.358Z,1.32
2019-05-14T07:29:29.071Z,1.90
2019-05-14T07:31:58.383Z,2.08
2019-05-14T07:34:34.665Z,3.10
2019-05-14T07:37:10.959Z,2.40
2019-05-14T07:39:40.609Z,1.75
2019-05-14T07:42:18.315Z,2.52
2019-05-14T07:44:48.520Z,2.02
2019-05-14T07:47:25.087Z,2.67
2019-05-14T07:50:00.734Z,1.75
2019-05-14T07:52:44.937Z,1.90
2019-05-14T07:55:09.763Z,1.37
2019-05-14T07:57:48.178Z,1.62
2019-05-14T08:00:19.315Z,1.82
2019-05-14T08:03:02.386Z,2.08
2019-05-14T08:05:38.949Z,2.22
2019-05-14T08:08:08.806Z,1.70
2019-05-14T08:10:45.553Z,1.67
2019-05-14T08:13:15.151Z,1.98
2019-05-14T08:15:50.972Z,1.50
2019-05-14T08:18:20.976Z,2.65
2019-05-14T08:20:59.063Z,1.65
2019-05-14T08:23:28.460Z,1.30
2019-05-14T08:26:04.856Z,1.80
2019-05-14T08:28:34.408Z,1.72
2019-05-14T08:31:10.260Z,1.70
2019-05-14T08:33:39.944Z,1.60
2019-05-14T08:36:18.394Z,1.82
2019-05-14T08:38:54.805Z,1.80
2019-05-14T08:41:30.506Z,1.60
2019-05-14T08:44:08.506Z,1.50
2019-05-14T08:46:45.336Z,1.65
2019-05-14T08:49:14.869Z,1.35
2019-05-14T08:51:59.486Z,1.30
2019-05-14T08:54:29.089Z,1.37
2019-05-14T08:57:05.813Z,1.90
2019-05-14T08:59:35.488Z,1.50
2019-05-14T09:02:12.184Z,1.60
2019-05-14T09:04:43.380Z,1.98
2019-05-14T09:07:28.937Z,1.27
2019-05-14T09:10:00.100Z,1.27
2019-05-14T09:12:38.886Z,2.62
2019-05-14T09:15:21.332Z,1.72
2019-05-14T09:17:58.761Z,2.67
2019-05-14T09:20:29.003Z,2.05
2019-05-14T09:23:05.242Z,2.00
2019-05-14T09:25:34.884Z,3.00
2019-05-14T09:28:10.650Z,2.67
2019-05-14T09:30:40.235Z,2.45
2019-05-14T09:33:18.681Z,2.00
2019-05-14T09:36:09.929Z,2.15
2019-05-14T09:38:31.290Z,2.00
2019-05-14T09:41:14.704Z,1.70
2019-05-14T09:43:48.377Z,1.95
2019-05-14T09:46:24.072Z,2.20
2019-05-14T09:49:00.214Z,3.15
2019-05-14T09:51:29.896Z,1.75
2019-05-14T09:54:08.347Z,1.50
2019-05-14T09:56:39.519Z,1.77
2019-05-14T09:59:09.213Z,1.95
2019-05-14T10:01:45.463Z,2.15
2019-05-14T10:04:15.125Z,2.45
2019-05-14T10:06:51.271Z,2.10
2019-05-14T10:09:33.882Z,2.20
2019-05-14T10:12:16.922Z,2.00
2019-05-14T10:14:52.990Z,2.00
2019-05-14T10:17:22.654Z,1.72
2019-05-14T10:19:59.589Z,1.70
2019-05-14T10:22:29.307Z,1.37
2019-05-14T10:25:05.838Z,1.60
2019-05-14T10:27:42.442Z,2.40
2019-05-14T10:30:12.616Z,1.75
2019-05-14T10:32:42.230Z,1.70
2019-05-14T10:35:19.369Z,1.57
2019-05-14T10:37:49.044Z,2.10
2019-05-14T10:40:25.720Z,2.33
2019-05-14T10:42:55.299Z,2.00
2019-05-14T10:45:31.454Z,2.08
2019-05-14T10:48:01.118Z,2.08
2019-05-14T10:50:55.129Z,1.70
2019-05-14T10:53:15.251Z,1.75
2019-05-14T10:55:51.337Z,1.57
2019-05-14T10:58:29.068Z,1.60
2019-05-14T11:01:11.617Z,1.12
2019-05-14T11:03:41.252Z,1.50
2019-05-14T11:06:11.621Z,1.50
2019-05-14T11:08:49.192Z,1.55
2019-05-14T11:11:25.385Z,2.00
2019-05-14T11:14:08.961Z,1.30
2019-05-14T11:16:41.961Z,1.52
2019-05-14T11:19:18.649Z,1.55
2019-05-14T11:21:48.456Z,1.72
2019-05-14T11:24:25.148Z,1.60
2019-05-14T11:26:54.589Z,2.27
2019-05-14T11:29:24.246Z,1.82
2019-05-14T11:32:00.755Z,1.75
2019-05-14T11:34:39.097Z,1.90
2019-05-14T11:37:15.053Z,2.20
2019-05-14T11:39:51.388Z,2.83
2019-05-14T11:42:31.121Z,2.22
2019-05-14T11:45:05.745Z,1.75
2019-05-14T11:47:35.324Z,1.67
2019-05-14T11:50:14.509Z,1.80
2019-05-14T11:52:44.181Z,1.80
2019-05-14T11:55:20.595Z,1.90
2019-05-14T11:57:50.111Z,2.27
2019-05-14T12:00:29.542Z,2.98
2019-05-14T12:02:59.324Z,1.70
2019-05-14T12:05:35.323Z,2.17
2019-05-14T12:08:04.929Z,2.10
2019-05-14T12:10:47.382Z,4.12
2019-05-14T12:13:19.255Z,2.80
2019-05-14T12:16:01.278Z,2.00
2019-05-14T12:18:30.857Z,2.25
2019-05-14T12:21:09.006Z,1.95
2019-05-14T12:23:45.554Z,2.25
2019-05-14T12:26:15.219Z,1.80
2019-05-14T12:28:51.751Z,1.60
2019-05-14T12:31:28.949Z,2.50
2019-05-14T12:34:05.790Z,2.15
2019-05-14T12:36:42.493Z,2.20
2019-05-14T12:39:19.062Z,2.20
2019-05-14T12:41:49.103Z,2.12
2019-05-14T12:44:28.895Z,2.20
2019-05-14T12:47:04.270Z,2.27
2019-05-14T12:49:33.936Z,2.20
2019-05-14T12:52:22.223Z,1.72
2019-05-14T12:54:50.177Z,1.95
2019-05-14T12:57:32.244Z,2.58
2019-05-14T13:00:11.110Z,2.20
2019-05-14T13:02:40.702Z,2.37
2019-05-14T13:05:18.364Z,2.08
2019-05-14T13:07:51.112Z,1.95
2019-05-14T13:10:26.279Z,2.67
2019-05-14T13:13:02.258Z,3.40
2019-05-14T13:15:45.115Z,2.52
2019-05-14T13:18:14.690Z,2.07
2019-05-14T13:20:51.173Z,2.30
2019-05-14T13:23:20.772Z,2.08
2019-05-14T13:25:58.857Z,2.60
2019-05-14T13:28:35.293Z,2.60
2019-05-14T13:31:04.988Z,2.87
2019-05-14T13:33:34.431Z,3.30
2019-05-14T13:36:11.124Z,2.47
2019-05-14T13:38:40.790Z,2.40
2019-05-14T13:41:19.035Z,2.25
2019-05-14T13:43:50.516Z,2.30
2019-05-14T13:46:25.405Z,2.37
2019-05-14T13:48:54.955Z,2.42
2019-05-14T13:51:24.623Z,2.47
2019-05-14T13:54:00.499Z,2.30
2019-05-14T13:56:38.882Z,2.55
2019-05-14T13:59:14.722Z,2.00
2019-05-14T14:01:44.400Z,2.35
2019-05-14T14:04:20.941Z,2.22
2019-05-14T14:06:59.062Z,2.22
2019-05-14T14:09:31.570Z,2.60
2019-05-14T14:12:13.327Z,2.20
2019-05-14T14:14:58.642Z,2.05
2019-05-14T14:17:39.938Z,2.60
2019-05-14T14:20:10.072Z,2.80
2019-05-14T14:22:48.894Z,2.70
2019-05-14T14:25:23.986Z,2.62
2019-05-14T14:28:00.513Z,2.70
2019-05-14T14:30:30.359Z,2.35
2019-05-14T14:33:07.122Z,2.45
2019-05-14T14:35:38.750Z,2.30
2019-05-14T14:38:15.065Z,2.52
2019-05-14T14:40:44.733Z,3.08
2019-05-14T14:43:20.818Z,2.50
2019-05-14T14:45:51.479Z,2.77
2019-05-14T14:48:21.607Z,2.42
2019-05-14T14:50:58.666Z,3.30
2019-05-14T14:53:51.037Z,2.20
2019-05-14T14:56:12.981Z,2.60
2019-05-14T14:58:42.716Z,2.58
2019-05-14T15:01:19.850Z,2.33
2019-05-14T15:03:50.612Z,2.25
2019-05-14T15:06:30.616Z,2.30
2019-05-14T15:08:59.420Z,1.98
2019-05-14T15:11:39.434Z,2.30
2019-05-14T15:14:14.799Z,2.25
2019-05-14T15:16:51.046Z,2.30
2019-05-14T15:19:29.555Z,1.90
2019-05-14T15:22:04.837Z,2.40
2019-05-14T15:24:34.586Z,2.08
2019-05-14T15:27:15.142Z,2.30
2019-05-14T15:29:43.224Z,2.10
2019-05-14T15:32:20.028Z,3.15
2019-05-14T15:34:50.568Z,2.60
2019-05-14T15:37:28.645Z,2.72
2019-05-14T15:39:58.982Z,1.87
2019-05-14T15:42:35.146Z,2.30
2019-05-14T15:45:04.998Z,2.20
2019-05-14T15:47:34.740Z,2.00
2019-05-14T15:50:11.670Z,2.25
2019-05-14T15:52:41.368Z,2.20
2019-05-14T15:55:18.489Z,2.80
2019-05-14T15:57:49.709Z,2.20
2019-05-14T16:00:29.188Z,2.05
2019-05-14T16:03:00.286Z,2.25
2019-05-14T16:05:39.108Z,2.20
2019-05-14T16:08:07.517Z,2.25
2019-05-14T16:10:50.805Z,2.37
2019-05-14T16:13:32.800Z,3.10
2019-05-14T16:16:10.632Z,2.67
2019-05-14T16:18:48.181Z,3.05
2019-05-14T16:21:18.389Z,2.58
2019-05-14T16:23:54.962Z,2.45
2019-05-14T16:26:24.666Z,2.80
2019-05-14T16:29:01.348Z,2.08
2019-05-14T16:31:31.518Z,2.50
2019-05-14T16:34:01.533Z,6.40
2019-05-14T16:36:41.251Z,3.02
2019-05-14T16:39:09.633Z,4.37
2019-05-14T16:41:48.864Z,11.12
2019-05-14T16:44:18.924Z,4.78
2019-05-14T16:46:55.273Z,3.10
2019-05-14T16:49:34.036Z,2.70
2019-05-14T16:52:03.014Z,2.47
2019-05-14T16:54:39.856Z,3.95
2019-05-14T16:57:22.667Z,2.67
2019-05-14T16:59:52.361Z,3.17
2019-05-14T17:02:29.618Z,6.65
2019-05-14T17:05:02.163Z,4.17
2019-05-14T17:07:38.766Z,7.08
2019-05-14T17:10:18.104Z,7.08
2019-05-14T17:13:01.923Z,5.60
2019-05-14T17:15:51.756Z,4.17
2019-05-14T17:18:28.786Z,3.10
2019-05-14T17:20:59.409Z,3.25
2019-05-14T17:23:35.631Z,3.60
2019-05-14T17:26:18.564Z,4.10
2019-05-14T17:28:55.300Z,4.87
2019-05-14T17:31:24.995Z,7.62
2019-05-14T17:34:01.408Z,5.42
2019-05-14T17:36:31.146Z,3.80
2019-05-14T17:39:08.612Z,7.40
2019-05-14T17:41:41.612Z,6.85
2019-05-14T17:44:16.689Z,15.90
2019-05-14T17:46:48.707Z,3.60
2019-05-14T17:49:23.994Z,6.30
2019-05-14T17:51:53.678Z,3.98
2019-05-14T17:54:29.568Z,3.35
2019-05-14T17:57:00.258Z,4.97
2019-05-14T17:59:39.977Z,6.30
2019-05-14T18:02:09.793Z,4.03
2019-05-14T18:04:48.633Z,3.87
2019-05-14T18:07:19.151Z,4.37
2019-05-14T18:09:55.126Z,6.50
2019-05-14T18:12:32.098Z,3.52
2019-05-14T18:15:15.637Z,4.35
2019-05-14T18:17:59.027Z,4.12
2019-05-14T18:20:35.021Z,5.20
2019-05-14T18:23:12.191Z,11.05
2019-05-14T18:25:43.361Z,3.83
2019-05-14T18:28:13.053Z,4.50
2019-05-14T18:30:49.361Z,11.85
2019-05-14T18:33:25.533Z,3.75
2019-05-14T18:35:55.155Z,17.85
2019-05-14T18:38:31.063Z,4.72
2019-05-14T18:41:00.723Z,7.70
2019-05-14T18:43:39.127Z,25.00
2019-05-14T18:46:15.793Z,12.55
2019-05-14T18:48:51.819Z,6.62
2019-05-14T18:51:28.910Z,13.65
2019-05-14T18:53:58.652Z,12.30
2019-05-14T18:56:34.800Z,8.78
2019-05-14T18:59:04.558Z,12.90
2019-05-14T19:01:41.360Z,6.65
2019-05-14T19:04:19.531Z,5.35
2019-05-14T19:06:55.929Z,6.47
2019-05-14T19:09:25.667Z,4.72
2019-05-14T19:11:55.399Z,4.17
2019-05-14T19:14:32.265Z,8.15
2019-05-14T19:17:09.312Z,3.20
2019-05-14T19:19:51.542Z,3.80
2019-05-14T19:22:28.802Z,14.63
2019-05-14T19:24:58.878Z,5.60
2019-05-14T19:27:37.820Z,4.10
2019-05-14T19:30:08.453Z,3.60
2019-05-14T19:32:44.464Z,11.55
2019-05-14T19:35:14.911Z,5.08
2019-05-14T19:37:51.745Z,3.67
2019-05-14T19:40:21.518Z,7.85
2019-05-14T19:42:59.746Z,5.03
2019-05-14T19:45:36.012Z,4.42
2019-05-14T19:48:12.778Z,8.03
2019-05-14T19:50:42.631Z,5.17
2019-05-14T19:53:12.360Z,4.37
2019-05-14T19:55:48.997Z,5.95
2019-05-14T19:58:20.243Z,7.12
2019-05-14T20:00:57.020Z,3.62
2019-05-14T20:03:28.981Z,3.83
2019-05-14T20:06:05.291Z,7.53
2019-05-14T20:08:35.038Z,3.67
2019-05-14T20:11:11.991Z,4.58
2019-05-14T20:13:48.597Z,4.05
2019-05-14T20:16:24.941Z,5.80
2019-05-14T20:19:08.814Z,3.83
2019-05-14T20:21:51.644Z,3.72
2019-05-14T20:24:21.394Z,12.17
2019-05-14T20:27:05.797Z,5.62
2019-05-14T20:29:35.055Z,3.40
2019-05-14T20:32:10.945Z,4.78
2019-05-14T20:34:40.610Z,8.95
2019-05-14T20:37:18.803Z,4.25
2019-05-14T20:39:48.320Z,3.27
2019-05-14T20:42:24.810Z,3.47
2019-05-14T20:44:54.472Z,7.22
2019-05-14T20:47:31.043Z,7.08
2019-05-14T20:50:00.794Z,5.00
2019-05-14T20:52:36.804Z,3.62
2019-05-14T20:55:09.526Z,5.85
2019-05-14T20:57:48.735Z,10.03
2019-05-14T21:00:24.825Z,4.10
2019-05-14T21:02:54.541Z,4.00
2019-05-14T21:05:38.859Z,5.08
2019-05-14T21:08:14.538Z,5.05
2019-05-14T21:10:50.325Z,3.80
2019-05-14T21:13:19.910Z,6.87
2019-05-14T21:15:55.657Z,4.05
2019-05-14T21:18:35.249Z,3.40
2019-05-14T21:21:18.542Z,3.92
2019-05-14T21:23:54.221Z,3.70
2019-05-14T21:26:30.434Z,8.53
2019-05-14T21:29:00.150Z,2.95
2019-05-14T21:31:35.953Z,3.47
2019-05-14T21:34:08.021Z,3.90
2019-05-14T21:36:43.374Z,4.28
2019-05-14T21:39:19.219Z,2.98
2019-05-14T21:41:49.050Z,2.65
2019-05-14T21:44:18.894Z,3.92
2019-05-14T21:46:55.098Z,5.08
2019-05-14T21:49:30.848Z,2.90
2019-05-14T21:52:00.510Z,2.75
2019-05-14T21:54:31.091Z,3.00
2019-05-14T21:57:11.345Z,10.70
2019-05-14T21:59:39.003Z,3.08
2019-05-14T22:02:24.817Z,2.92
2019-05-14T22:04:49.190Z,2.22
2019-05-14T22:07:25.603Z,5.75
2019-05-14T22:10:02.364Z,3.22
2019-05-14T22:12:31.954Z,2.75
2019-05-14T22:15:08.511Z,2.92
2019-05-14T22:17:38.419Z,6.08
2019-05-14T22:20:29.010Z,2.47
2019-05-14T22:23:05.713Z,2.62
2019-05-14T22:25:41.501Z,3.62
2019-05-14T22:28:15.543Z,6.80
2019-05-14T22:30:48.622Z,2.42
2019-05-14T22:33:24.532Z,3.05
2019-05-14T22:35:54.123Z,5.12
2019-05-14T22:38:30.579Z,2.62
2019-05-14T22:41:00.096Z,2.72
2019-05-14T22:43:38.367Z,5.22
2019-05-14T22:46:08.413Z,3.72
2019-05-14T22:48:44.940Z,3.27
2019-05-14T22:51:14.450Z,2.92
2019-05-14T22:53:50.316Z,4.95
2019-05-14T22:56:19.956Z,2.70
2019-05-14T22:58:58.319Z,2.33
2019-05-14T23:01:28.827Z,2.83
2019-05-14T23:04:05.494Z,3.83
2019-05-14T23:06:35.075Z,3.05
2019-05-14T23:09:06.132Z,2.47
2019-05-14T23:11:41.878Z,2.50
2019-05-14T23:14:18.570Z,3.10
2019-05-14T23:16:54.960Z,3.17
2019-05-14T23:19:31.235Z,2.60
2019-05-14T23:22:14.044Z,2.70
2019-05-14T23:24:50.116Z,2.53
2019-05-14T23:27:19.768Z,2.83
2019-05-14T23:29:55.778Z,2.52
2019-05-14T23:32:25.543Z,2.65
2019-05-14T23:34:55.181Z,3.25
2019-05-14T23:37:31.813Z,3.50
2019-05-14T23:40:01.473Z,2.65
2019-05-14T23:42:39.267Z,2.77
2019-05-14T23:45:09.167Z,4.70
2019-05-14T23:47:38.669Z,2.50
2019-05-14T23:50:15.045Z,2.67
2019-05-14T23:52:51.785Z,2.40
2019-05-14T23:55:21.426Z,4.53
2019-05-14T23:57:51.017Z,2.70
